createdAt,value
2017-11-16T13:55:39.022Z,21.59
2017-11-16T13:56:44.069Z,21.60
2017-11-16T14:16:24.794Z,7.06
2017-11-16T14:17:30.053Z,7.02
2017-11-16T14:18:34.911Z,7.05
2017-11-16T14:19:46.523Z,6.74
2017-11-16T14:20:51.409Z,6.64
2017-11-16T14:21:56.464Z,6.64
2017-11-16T14:23:01.328Z,6.55
2017-11-16T14:24:06.178Z,6.35
2017-11-16T14:25:11.055Z,6.66
2017-11-16T14:26:15.882Z,6.87
2017-11-16T14:27:20.714Z,6.85
2017-11-16T14:28:25.885Z,6.73
2017-11-16T14:29:31.084Z,6.58
2017-11-16T14:30:36.695Z,6.43
2017-11-16T14:31:41.487Z,6.46
2017-11-16T14:32:46.334Z,6.54
2017-11-16T14:33:51.404Z,6.63
2017-11-16T14:34:56.549Z,6.51
2017-11-16T14:36:01.366Z,6.59
2017-11-16T14:37:06.146Z,6.47
2017-11-16T14:38:10.930Z,6.55
2017-11-16T14:39:15.804Z,6.46
2017-11-16T14:40:20.611Z,6.48
2017-11-16T14:41:25.778Z,6.66
2017-11-16T14:42:31.620Z,6.30
2017-11-16T14:43:36.391Z,6.53
2017-11-16T14:44:41.165Z,6.51
2017-11-16T14:45:46.009Z,6.57
2017-11-16T14:46:50.725Z,6.24
2017-11-16T14:47:55.876Z,6.29
2017-11-16T14:49:00.628Z,6.21
2017-11-16T14:50:05.366Z,6.27
2017-11-16T14:51:10.056Z,6.30
2017-11-16T14:52:14.832Z,6.33
2017-11-16T14:53:19.742Z,6.39
2017-11-16T14:54:25.171Z,6.54
2017-11-16T14:55:29.993Z,6.41
2017-11-16T14:56:34.759Z,6.35
2017-11-16T14:57:39.474Z,6.13
2017-11-16T14:58:44.306Z,6.23
2017-11-16T14:59:49.120Z,6.16
2017-11-16T15:00:54.127Z,6.11
2017-11-16T15:01:58.892Z,6.26
2017-11-16T15:03:03.638Z,6.23
2017-11-16T15:04:08.385Z,6.23
2017-11-16T15:05:13.137Z,6.36
2017-11-16T15:06:17.892Z,6.17
2017-11-16T15:07:22.945Z,6.39
2017-11-16T15:08:27.688Z,6.27
2017-11-16T15:09:32.468Z,6.14
2017-11-16T15:10:37.237Z,5.96
2017-11-16T15:11:42.087Z,6.03
2017-11-16T15:12:46.794Z,6.03
2017-11-16T15:13:51.915Z,5.97
2017-11-16T15:14:56.655Z,6.02
2017-11-16T15:16:01.535Z,6.04
2017-11-16T15:17:06.328Z,6.11
2017-11-16T15:18:11.129Z,6.12
2017-11-16T15:19:16.094Z,6.03
2017-11-16T15:20:21.404Z,6.08
2017-11-16T15:21:26.103Z,6.11
2017-11-16T15:22:30.865Z,5.90
2017-11-16T15:23:35.607Z,5.95
2017-11-16T15:24:40.454Z,6.06
2017-11-16T15:25:45.214Z,6.01
2017-11-16T15:26:50.522Z,5.97
2017-11-16T15:27:55.268Z,5.97
2017-11-16T15:29:00.237Z,6.03
2017-11-16T15:30:05.093Z,5.93
2017-11-16T15:31:09.829Z,5.90
2017-11-16T15:32:14.731Z,5.96
2017-11-16T15:33:20.389Z,5.99
2017-11-16T15:34:25.203Z,6.00
2017-11-16T15:35:30.678Z,5.88
2017-11-16T15:36:35.617Z,5.89
2017-11-16T15:37:40.408Z,5.90
2017-11-16T15:38:45.181Z,5.78
2017-11-16T15:39:50.460Z,5.80
2017-11-16T15:40:55.315Z,5.84
2017-11-16T15:42:00.149Z,5.85
2017-11-16T15:43:05.019Z,5.88
2017-11-16T15:44:09.847Z,5.88
2017-11-16T15:45:14.821Z,5.93
2017-11-16T15:46:20.090Z,5.72
2017-11-16T15:47:24.876Z,5.65
2017-11-16T15:48:29.957Z,5.72
2017-11-16T15:49:34.785Z,5.63
2017-11-16T15:50:39.735Z,5.78
2017-11-16T15:51:44.596Z,5.69
2017-11-16T15:52:49.684Z,5.61
2017-11-16T15:53:54.549Z,5.74
2017-11-16T15:54:59.382Z,5.69
2017-11-16T15:56:04.217Z,5.60
2017-11-16T15:57:09.080Z,5.58
2017-11-16T15:58:14.062Z,5.63
2017-11-16T15:59:20.502Z,5.61
2017-11-16T16:00:25.342Z,5.66
2017-11-16T16:01:30.970Z,5.74
2017-11-16T16:02:35.740Z,5.64
2017-11-16T16:03:40.556Z,5.73
2017-11-16T16:04:45.376Z,5.78
2017-11-16T16:05:50.540Z,5.75
2017-11-16T16:06:55.347Z,5.66
2017-11-16T16:08:00.054Z,5.77
2017-11-16T16:09:05.100Z,5.84
2017-11-16T16:10:09.877Z,5.80
2017-11-16T16:11:14.732Z,5.86
2017-11-16T16:12:20.078Z,5.85
2017-11-16T16:13:25.757Z,5.74
2017-11-16T16:14:30.631Z,5.81
2017-11-16T16:15:35.430Z,5.76
2017-11-16T16:16:40.235Z,5.94
2017-11-16T16:17:44.980Z,5.72
2017-11-16T16:18:49.770Z,5.85
2017-11-16T16:19:54.525Z,5.70
2017-11-16T16:20:59.326Z,5.66
2017-11-16T16:22:04.206Z,5.66
2017-11-16T16:23:10.349Z,5.72
2017-11-16T16:24:15.271Z,5.59
2017-11-16T16:25:20.081Z,5.60
2017-11-16T16:26:24.816Z,5.66
2017-11-16T16:27:29.554Z,5.56
2017-11-16T16:28:34.312Z,5.51
2017-11-16T16:29:39.457Z,5.56
2017-11-16T16:30:44.279Z,5.61
2017-11-16T16:31:49.101Z,5.56
2017-11-16T16:32:54.082Z,5.65
2017-11-16T16:33:58.908Z,5.56
2017-11-16T16:39:02.138Z,5.82
2017-11-16T16:40:06.943Z,5.75
2017-11-16T16:41:11.589Z,5.57
2017-11-16T16:42:16.356Z,5.49
2017-11-16T16:43:21.063Z,5.54
2017-11-16T17:00:34.691Z,5.51
2017-11-16T17:01:39.450Z,5.54
2017-11-16T17:02:44.263Z,5.56
2017-11-16T17:03:49.200Z,5.68
2017-11-16T17:04:54.080Z,5.72
2017-11-16T17:05:59.519Z,5.60
2017-11-16T17:07:04.437Z,5.52
2017-11-16T17:08:09.295Z,5.56
2017-11-16T17:09:14.285Z,5.42
2017-11-16T17:10:20.831Z,5.49
2017-11-16T17:11:25.587Z,5.45
2017-11-16T17:12:30.561Z,5.66
2017-11-16T17:13:38.690Z,5.54
2017-11-16T17:14:43.687Z,5.54
2017-11-16T17:15:48.516Z,5.49
2017-11-16T17:16:53.379Z,5.50
2017-11-16T17:17:58.211Z,5.62
2017-11-16T17:19:03.431Z,5.56
2017-11-16T17:20:08.292Z,5.57
2017-11-16T17:21:13.247Z,5.77
2017-11-16T17:22:18.025Z,5.59
2017-11-16T17:23:22.744Z,5.52
2017-11-16T17:24:27.496Z,5.57
2017-11-16T17:25:32.576Z,5.55
2017-11-16T17:26:38.144Z,5.42
2017-11-16T17:27:42.910Z,5.45
2017-11-16T17:28:47.667Z,5.40
2017-11-16T17:29:52.483Z,5.52
2017-11-16T17:30:57.355Z,5.51
2017-11-16T17:32:02.667Z,5.59
2017-11-16T17:33:07.311Z,5.52
2017-11-16T17:34:11.980Z,5.51
2017-11-16T17:35:16.626Z,5.37
2017-11-16T17:36:21.384Z,5.43
2017-11-16T17:37:26.127Z,5.53
2017-11-16T17:38:31.192Z,5.42
2017-11-16T17:39:35.971Z,5.37
2017-11-16T17:40:40.778Z,5.58
2017-11-16T17:41:45.400Z,5.64
2017-11-16T17:42:50.015Z,5.57
2017-11-16T17:43:54.666Z,5.37
2017-11-16T17:44:59.782Z,5.34
2017-11-16T17:46:04.526Z,5.38
2017-11-16T17:47:09.311Z,5.44
2017-11-16T17:48:14.077Z,5.39
2017-11-16T17:49:18.842Z,5.36
2017-11-16T17:50:23.626Z,5.40
2017-11-16T17:51:28.437Z,5.49
2017-11-16T17:52:33.959Z,5.46
2017-11-16T17:53:39.524Z,5.41
2017-11-16T17:54:45.076Z,5.45
2017-11-16T17:55:49.879Z,5.56
2017-11-16T17:56:54.917Z,5.52
2017-11-16T17:57:59.715Z,5.30
2017-11-16T17:59:04.492Z,5.20
2017-11-16T18:00:09.221Z,5.34
2017-11-16T18:01:13.959Z,5.45
2017-11-16T18:02:19.034Z,5.50
2017-11-16T18:03:24.125Z,5.54
2017-11-16T18:04:28.871Z,5.68
2017-11-16T18:05:33.626Z,5.59
2017-11-16T18:06:38.342Z,5.43
2017-11-16T18:07:43.165Z,5.50
2017-11-16T18:08:47.956Z,5.54
2017-11-16T18:09:53.912Z,5.58
2017-11-16T18:10:58.674Z,5.29
2017-11-16T18:12:03.483Z,5.33
2017-11-16T18:13:09.002Z,5.32
2017-11-16T18:14:13.833Z,5.40
2017-11-16T18:15:18.850Z,5.43
2017-11-16T18:16:24.212Z,5.46
2017-11-16T18:17:29.057Z,5.57
2017-11-16T18:18:33.768Z,5.38
2017-11-16T18:19:38.620Z,5.53
2017-11-16T18:20:43.408Z,5.60
2017-11-16T18:21:48.132Z,5.61
2017-11-16T18:22:53.146Z,5.64
2017-11-16T18:23:59.005Z,5.69
2017-11-16T18:25:03.865Z,5.70
2017-11-16T18:26:08.722Z,5.66
2017-11-16T18:27:14.376Z,5.57
2017-11-16T18:28:19.317Z,5.73
2017-11-16T18:29:24.580Z,5.59
2017-11-16T18:30:29.372Z,5.57
2017-11-16T18:31:34.308Z,5.41
2017-11-16T18:32:39.180Z,5.45
2017-11-16T18:33:44.012Z,5.42
2017-11-16T18:34:48.920Z,5.53
2017-11-16T18:35:54.116Z,5.44
2017-11-16T18:36:59.018Z,5.41
2017-11-16T18:38:05.028Z,5.29
2017-11-16T18:39:09.880Z,5.44
2017-11-16T18:40:14.984Z,5.41
2017-11-16T18:41:19.949Z,5.49
2017-11-16T18:42:25.196Z,5.43
2017-11-16T18:43:30.112Z,5.32
2017-11-16T18:44:36.127Z,5.37
2017-11-16T18:45:41.125Z,5.31
2017-11-16T18:46:46.480Z,5.43
2017-11-16T18:47:51.465Z,5.39
2017-11-16T18:48:56.599Z,5.40
2017-11-16T18:50:01.444Z,5.48
2017-11-16T18:51:06.296Z,5.37
2017-11-16T18:52:11.191Z,5.44
2017-11-16T18:53:16.050Z,5.42
2017-11-16T18:54:20.878Z,5.44
2017-11-16T18:55:26.055Z,5.34
2017-11-16T18:56:31.217Z,5.48
2017-11-16T18:57:36.068Z,5.70
2017-11-16T18:58:40.901Z,5.58
2017-11-16T18:59:45.751Z,5.52
2017-11-16T19:00:50.777Z,5.46
2017-11-16T19:01:55.897Z,5.48
2017-11-16T19:03:00.841Z,5.54
2017-11-16T19:04:05.709Z,5.61
2017-11-16T19:05:10.510Z,5.55
2017-11-16T19:06:15.436Z,5.34
2017-11-16T19:07:20.507Z,5.35
2017-11-16T19:08:25.558Z,5.31
2017-11-16T19:09:30.317Z,5.47
2017-11-16T19:10:35.007Z,5.49
2017-11-16T19:11:39.691Z,5.40
2017-11-16T19:12:44.590Z,5.44
2017-11-16T19:13:49.439Z,5.31
2017-11-16T19:14:54.483Z,5.44
2017-11-16T19:15:59.231Z,5.47
2017-11-16T19:17:04.033Z,5.63
2017-11-16T19:18:08.646Z,5.68
2017-11-16T19:19:13.360Z,5.73
2017-11-16T19:20:18.168Z,5.62
2017-11-16T19:21:23.382Z,5.68
2017-11-16T19:22:27.940Z,5.70
2017-11-16T19:23:32.572Z,5.46
2017-11-16T19:24:37.215Z,5.37
2017-11-16T19:25:41.861Z,5.42
2017-11-16T19:26:46.588Z,5.43
2017-11-16T19:27:51.586Z,5.37
2017-11-16T19:28:56.306Z,5.52
2017-11-16T19:30:00.945Z,5.63
2017-11-16T19:32:24.629Z,5.60
2017-11-16T19:33:29.524Z,5.49
2017-11-16T19:34:35.132Z,5.46
2017-11-16T19:35:39.905Z,5.38
2017-11-16T19:36:44.700Z,5.50
2017-11-16T19:37:49.415Z,5.52
2017-11-16T19:38:54.189Z,5.56
2017-11-16T19:39:59.849Z,5.70
2017-11-16T19:41:05.045Z,5.59
2017-11-16T19:42:09.857Z,5.48
2017-11-16T19:43:14.581Z,5.48
2017-11-16T19:44:19.445Z,5.29
2017-11-16T19:45:24.216Z,5.25
2017-11-16T19:46:29.035Z,5.31
2017-11-16T19:47:34.068Z,5.28
2017-11-16T19:48:38.810Z,5.43
2017-11-16T19:49:43.700Z,5.48
2017-11-16T19:50:48.502Z,5.50
2017-11-16T19:51:53.332Z,5.57
2017-11-16T19:52:58.140Z,5.47
2017-11-16T19:54:03.361Z,5.47
2017-11-16T19:55:08.575Z,5.63
2017-11-16T19:56:13.919Z,5.50
2017-11-16T19:57:18.774Z,5.46
2017-11-16T19:58:23.814Z,5.48
2017-11-16T19:59:28.763Z,5.59
2017-11-16T20:14:58.252Z,5.48
2017-11-16T20:16:02.940Z,5.43
2017-11-16T20:17:08.736Z,5.43
2017-11-16T20:18:13.510Z,5.51
2017-11-16T20:19:18.277Z,5.55
2017-11-16T20:20:23.468Z,5.56
2017-11-16T20:21:28.582Z,5.69
2017-11-16T20:22:33.992Z,5.78
2017-11-16T20:23:38.829Z,5.61
2017-11-16T20:24:43.576Z,5.47
2017-11-16T20:25:48.495Z,5.36
2017-11-16T20:26:53.559Z,5.40
2017-11-16T20:27:58.402Z,5.48
2017-11-16T20:29:03.093Z,5.57
2017-11-16T20:30:08.587Z,5.46
2017-11-16T20:31:13.318Z,5.36
2017-11-16T20:32:18.152Z,5.36
2017-11-16T20:33:23.151Z,5.36
2017-11-16T20:34:28.058Z,5.30
2017-11-16T20:35:32.952Z,5.39
2017-11-16T20:36:38.030Z,5.43
2017-11-16T20:37:43.079Z,5.31
2017-11-16T20:38:48.088Z,5.39
2017-11-16T20:39:53.787Z,5.42
2017-11-16T20:40:58.953Z,5.32
2017-11-16T20:42:04.023Z,5.33
2017-11-16T20:43:09.045Z,5.46
2017-11-16T20:44:14.274Z,5.46
2017-11-16T20:45:19.779Z,5.33
2017-11-16T20:46:25.067Z,5.30
2017-11-16T20:47:30.311Z,5.45
2017-11-16T20:48:35.427Z,5.58
2017-11-16T20:49:40.579Z,5.73
2017-11-16T20:50:45.596Z,5.77
2017-11-16T20:51:50.531Z,5.73
2017-11-16T20:52:55.788Z,5.62
2017-11-16T20:54:00.733Z,5.68
2017-11-16T20:55:05.842Z,5.55
2017-11-16T20:56:10.766Z,5.48
2017-11-16T20:57:15.665Z,5.48
2017-11-16T20:58:20.480Z,5.50
2017-11-16T20:59:25.675Z,5.42
2017-11-16T21:00:30.899Z,5.46
2017-11-16T21:01:35.759Z,5.44
2017-11-16T21:02:40.679Z,5.52
2017-11-16T21:03:49.701Z,5.55
2017-11-16T21:04:55.267Z,5.47
2017-11-16T21:06:01.179Z,5.51
2017-11-16T21:07:06.046Z,5.61
2017-11-16T21:08:10.853Z,5.55
2017-11-16T21:09:15.710Z,5.43
2017-11-16T21:10:20.670Z,5.32
2017-11-16T21:11:25.451Z,5.25
2017-11-16T21:12:30.708Z,5.23
2017-11-16T21:13:35.553Z,5.32
2017-11-16T21:14:40.515Z,5.38
2017-11-16T21:15:45.334Z,5.55
2017-11-16T21:16:50.223Z,5.79
2017-11-16T21:17:55.184Z,5.57
2017-11-16T21:19:00.885Z,5.51
2017-11-16T21:20:05.647Z,5.41
2017-11-16T21:21:10.457Z,5.39
2017-11-16T21:22:15.233Z,5.47
2017-11-16T21:23:19.949Z,5.46
2017-11-16T21:24:24.715Z,5.44
2017-11-16T21:25:29.806Z,5.47
2017-11-16T21:26:34.561Z,5.32
2017-11-16T21:27:39.283Z,5.20
2017-11-16T21:28:44.014Z,5.24
2017-11-16T21:29:48.854Z,5.44
2017-11-16T21:30:53.519Z,5.48
2017-11-16T21:31:58.542Z,5.38
2017-11-16T21:33:03.280Z,5.37
2017-11-16T21:34:08.010Z,5.36
2017-11-16T21:35:12.767Z,5.45
2017-11-16T21:36:17.485Z,5.49
2017-11-16T21:37:22.291Z,5.41
2017-11-16T21:38:27.384Z,5.33
2017-11-16T21:39:32.109Z,5.21
2017-11-16T21:40:36.829Z,5.11
2017-11-16T21:41:41.534Z,5.19
2017-11-16T21:42:46.493Z,5.32
2017-11-16T21:43:51.493Z,5.33
2017-11-16T21:44:56.786Z,5.33
2017-11-16T21:46:01.536Z,5.42
2017-11-16T21:47:06.382Z,5.53
2017-11-16T21:48:11.232Z,5.60
2017-11-16T21:49:15.980Z,5.56
2017-11-16T21:50:20.856Z,5.70
2017-11-16T21:51:25.722Z,5.86
2017-11-16T21:52:30.324Z,5.55
2017-11-16T21:53:35.080Z,5.56
2017-11-16T21:54:39.771Z,5.61
2017-11-16T21:55:44.479Z,5.53
2017-11-16T21:56:49.228Z,5.41
2017-11-16T21:57:54.288Z,5.44
2017-11-16T21:58:59.028Z,5.28
2017-11-16T22:00:03.755Z,5.44
2017-11-16T22:01:08.471Z,5.33
2017-11-16T22:02:13.212Z,5.48
2017-11-16T22:03:18.027Z,5.33
2017-11-16T22:04:23.138Z,5.28
2017-11-16T22:05:27.858Z,5.36
2017-11-16T22:06:32.652Z,5.47
2017-11-16T22:07:37.336Z,5.58
2017-11-16T22:08:42.052Z,5.64
2017-11-16T22:09:46.803Z,5.62
2017-11-16T22:10:51.856Z,5.58
2017-11-16T22:11:57.330Z,5.63
2017-11-16T22:13:02.057Z,5.65
2017-11-16T22:14:06.712Z,5.73
2017-11-16T22:15:11.436Z,5.73
2017-11-16T22:16:16.169Z,5.76
2017-11-16T22:17:21.286Z,5.70
2017-11-16T22:18:26.085Z,5.55
2017-11-16T22:19:30.852Z,5.44
2017-11-16T22:20:35.646Z,5.38
2017-11-16T22:21:40.613Z,5.43
2017-11-16T22:22:45.438Z,5.52
2017-11-16T22:23:50.662Z,5.52
2017-11-16T22:24:55.623Z,5.33
2017-11-16T22:26:00.524Z,5.39
2017-11-16T22:27:04.753Z,5.38
2017-11-16T22:28:09.385Z,5.24
2017-11-16T22:29:13.971Z,5.26
2017-11-16T22:30:19.321Z,5.36
2017-11-16T22:31:24.025Z,5.52
2017-11-16T22:32:28.754Z,5.66
2017-11-16T22:33:33.412Z,5.72
2017-11-16T22:34:38.107Z,5.79
2017-11-16T22:35:43.001Z,5.79
2017-11-16T22:36:47.836Z,5.81
2017-11-16T22:37:52.670Z,5.79
2017-11-16T22:38:57.822Z,5.61
2017-11-16T22:40:02.716Z,5.63
2017-11-16T22:41:07.533Z,5.70
2017-11-16T22:42:12.653Z,5.71
2017-11-16T22:43:17.449Z,5.61
2017-11-16T22:44:22.301Z,5.42
2017-11-16T22:45:27.081Z,5.60
2017-11-16T22:46:32.025Z,5.57
2017-11-16T22:47:36.794Z,5.53
2017-11-16T22:48:42.437Z,5.42
2017-11-16T22:49:47.404Z,5.48
2017-11-16T22:50:52.259Z,5.52
2017-11-16T22:51:57.224Z,5.60
2017-11-16T22:53:02.154Z,5.65
2017-11-16T22:54:07.167Z,5.66
2017-11-16T22:55:12.973Z,5.65
2017-11-16T22:56:18.139Z,5.79
2017-11-16T22:57:23.651Z,5.68
2017-11-16T22:58:28.624Z,5.70
2017-11-16T22:59:33.568Z,5.69
2017-11-16T23:16:03.755Z,5.52
2017-11-16T23:17:08.620Z,5.17
2017-11-16T23:18:13.531Z,5.01
2017-11-16T23:19:18.324Z,4.93
2017-11-16T23:20:23.166Z,4.84
2017-11-16T23:21:28.212Z,4.92
2017-11-16T23:22:32.944Z,5.07
2017-11-16T23:23:37.664Z,5.00
2017-11-16T23:24:42.527Z,5.06
2017-11-16T23:25:47.426Z,5.20
2017-11-16T23:26:52.681Z,5.11
2017-11-16T23:27:57.802Z,5.12
2017-11-16T23:29:02.622Z,5.15
2017-11-16T23:30:07.595Z,5.09
2017-11-16T23:31:12.391Z,5.19
2017-11-16T23:32:17.257Z,5.18
2017-11-16T23:33:22.166Z,5.04
2017-11-16T23:34:27.496Z,5.11
2017-11-16T23:35:32.286Z,5.20
2017-11-16T23:36:37.080Z,5.22
2017-11-16T23:37:41.993Z,5.13
2017-11-16T23:38:46.851Z,5.09
2017-11-16T23:39:51.666Z,5.17
2017-11-16T23:40:56.789Z,5.15
2017-11-16T23:42:01.792Z,5.17
2017-11-16T23:43:06.992Z,5.26
2017-11-16T23:44:12.134Z,5.33
2017-11-16T23:45:17.312Z,5.26
2017-11-16T23:46:22.177Z,5.42
2017-11-16T23:47:27.448Z,5.38
2017-11-16T23:48:32.759Z,5.19
2017-11-16T23:49:38.204Z,5.24
2017-11-16T23:50:43.224Z,5.40
2017-11-16T23:51:48.190Z,5.26
2017-11-16T23:52:53.223Z,5.30
2017-11-16T23:53:58.623Z,5.39
2017-11-16T23:55:03.581Z,5.45
2017-11-16T23:56:08.356Z,5.46
2017-11-16T23:57:13.139Z,5.29
2017-11-16T23:58:17.896Z,5.22
2017-11-16T23:59:22.714Z,5.24
